Rogerslacy, Texas
Current Conditions -  °F | °C
As of 9:35 PM on Sunday 28 Dec 2014 (Local Time) from KT65 Reporting Station
Clear Clear  
Wind Chill: 45°   Ceiling: Unl
Heat Index: 45°   Visibility: 10mi
Dew Point: 42°   Wind: 0mph
Humidity: 88%   Direction: NA
Pressure: 30.22"   Gusts: NA
Location:  26.2692°N, 97.8326°W
Report Text: KT65 290335Z AUTO 00000KT 10SM CLR 07/06 A3022 RMK AO2 T00730055
Loading
Personal Weather Stations






























Interactive Weather Map New forecast layout! Learn more

10-Day Weather Forecast

Advertisements
Track Severe Weather on mobile